Time;durP1;ratioP1;P1;durP2;ratioP2;P2;SDS_P1;SDS_P2;PMS_P1;PMS_P2;Temp;Humidity;BMP_temperature;BMP_pressure;BME280_temperature;BME280_humidity;BME280_pressure;Samples;Min_cycle;Max_cycle;Signal;HPM_P1;HPM_P2
2023/08/02 00:00:08;;;;;;;1.60;0.50;;;15.70;99.90;;;;;;5090975;27;20092;-90
2023/08/02 00:02:33;;;;;;;1.55;0.75;;;15.80;99.90;;;;;;5104483;27;20053;-90
2023/08/02 00:04:59;;;;;;;1.75;0.50;;;15.70;99.90;;;;;;5085083;27;20114;-90
2023/08/02 00:07:25;;;;;;;2.70;0.60;;;15.80;99.90;;;;;;5090778;27;20400;-90
2023/08/02 00:09:51;;;;;;;2.08;0.60;;;15.70;99.90;;;;;;5082532;27;20050;-92
2023/08/02 00:12:16;;;;;;;1.45;0.50;;;15.60;99.90;;;;;;5087330;27;20446;-91
2023/08/02 00:14:42;;;;;;;2.63;0.70;;;15.70;99.90;;;;;;5084010;27;20046;-90
2023/08/02 00:17:08;;;;;;;2.20;0.60;;;15.80;99.90;;;;;;5099278;27;20039;-91
2023/08/02 00:19:35;;;;;;;2.53;0.80;;;15.70;99.90;;;;;;5088171;27;20046;-91
2023/08/02 00:22:01;;;;;;;2.88;0.60;;;15.70;99.90;;;;;;5086258;27;20067;-90
2023/08/02 00:24:27;;;;;;;1.92;0.60;;;15.70;99.90;;;;;;5095667;27;20074;-91
2023/08/02 00:26:53;;;;;;;2.97;0.60;;;15.70;99.90;;;;;;5084650;27;20043;-91
2023/08/02 00:29:18;;;;;;;4.32;0.70;;;15.70;99.90;;;;;;5100499;27;20038;-91
2023/08/02 00:31:44;;;;;;;1.25;0.47;;;15.70;99.90;;;;;;5095833;27;20231;-91
2023/08/02 00:34:10;;;;;;;3.20;0.60;;;15.60;99.90;;;;;;5111436;27;20035;-90
2023/08/02 00:36:35;;;;;;;0.47;0.40;;;15.60;99.90;;;;;;5102651;27;20544;-91
2023/08/02 00:39:01;;;;;;;1.95;0.60;;;15.60;99.90;;;;;;5084147;27;20556;-90
2023/08/02 00:41:27;;;;;;;2.22;0.65;;;15.60;99.90;;;;;;5100979;27;20043;-91
2023/08/02 00:43:53;;;;;;;1.55;0.52;;;15.70;99.90;;;;;;5084674;27;20035;-91
2023/08/02 00:46:21;;;;;;;2.53;0.65;;;15.70;99.90;;;;;;5093089;27;20031;-90
2023/08/02 00:48:47;;;;;;;1.13;0.55;;;15.70;99.90;;;;;;5112844;27;20039;-90
2023/08/02 00:51:17;;;;;;;1.85;0.50;;;15.70;99.90;;;;;;5102469;27;20034;-90
2023/08/02 00:53:44;;;;;;;2.70;0.80;;;15.70;99.90;;;;;;5083105;27;20035;-90
2023/08/02 00:56:11;;;;;;;1.98;0.63;;;15.60;99.90;;;;;;5111466;27;20027;-91
2023/08/02 00:58:37;;;;;;;1.13;0.57;;;15.70;99.90;;;;;;5102886;27;20546;-90
2023/08/02 01:01:07;;;;;;;2.50;0.82;;;15.70;99.90;;;;;;5092942;27;20051;-91
2023/08/02 01:03:37;;;;;;;1.33;0.70;;;15.70;99.90;;;;;;5090524;27;20115;-90
2023/08/02 01:06:26;;;;;;;2.75;1.00;;;15.70;99.90;;;;;;5098661;27;20365;-90
2023/08/02 01:09:07;;;;;;;2.28;0.80;;;15.70;99.90;;;;;;5115243;27;20062;-91
2023/08/02 01:11:44;;;;;;;6.60;0.90;;;15.60;99.90;;;;;;5110530;27;20126;-90
2023/08/02 01:14:16;;;;;;;2.00;0.73;;;15.60;99.90;;;;;;5127954;27;20408;-90
2023/08/02 01:16:43;;;;;;;4.90;1.00;;;15.60;99.90;;;;;;5111357;27;20038;-91
2023/08/02 01:19:10;;;;;;;4.15;1.10;;;15.70;99.90;;;;;;5116934;27;20035;-91
2023/08/02 01:21:35;;;;;;;3.72;0.98;;;15.80;99.90;;;;;;5102620;27;20038;-90
2023/08/02 01:24:02;;;;;;;2.88;1.00;;;15.70;99.90;;;;;;5083527;27;20614;-90
2023/08/02 01:26:30;;;;;;;3.00;0.90;;;15.60;99.90;;;;;;5113317;27;20049;-91
2023/08/02 01:29:01;;;;;;;3.28;1.40;;;15.60;99.90;;;;;;5111974;27;20092;-91
2023/08/02 01:31:28;;;;;;;2.10;1.05;;;15.70;99.90;;;;;;5112000;27;20049;-90
2023/08/02 01:33:55;;;;;;;;;;;15.70;99.90;;;;;;5118872;27;20095;-91
2023/08/02 01:36:21;;;;;;;4.85;1.30;;;15.70;99.90;;;;;;5118742;27;19997;-91
2023/08/02 01:38:47;;;;;;;3.13;1.40;;;15.60;99.90;;;;;;5090419;27;20085;-91
2023/08/02 01:41:12;;;;;;;2.40;1.45;;;15.70;99.90;;;;;;5080875;27;20070;-91
2023/08/02 01:43:38;;;;;;;6.05;2.33;;;15.70;99.90;;;;;;5079668;27;20035;-91
2023/08/02 01:46:04;;;;;;;2.72;1.73;;;15.70;99.90;;;;;;5074231;27;20031;-91
2023/08/02 01:48:30;;;;;;;6.97;2.10;;;15.50;99.90;;;;;;5094320;27;20427;-90
2023/08/02 01:50:56;;;;;;;4.22;1.98;;;15.70;99.90;;;;;;5095957;27;20103;-90
2023/08/02 01:53:21;;;;;;;4.60;1.90;;;15.70;99.90;;;;;;5091781;28;20066;-90
2023/08/02 01:55:47;;;;;;;4.38;1.75;;;15.70;99.90;;;;;;5097970;27;20077;-90
2023/08/02 01:58:13;;;;;;;5.45;2.00;;;15.60;99.90;;;;;;5084202;27;20781;-91
2023/08/02 02:00:39;;;;;;;3.42;2.08;;;15.60;99.90;;;;;;5097343;27;20509;-90
2023/08/02 02:03:04;;;;;;;4.53;1.70;;;15.70;99.90;;;;;;5094318;28;20126;-90
2023/08/02 02:05:30;;;;;;;3.45;1.70;;;15.60;99.90;;;;;;5083464;27;20039;-91
2023/08/02 02:07:56;;;;;;;7.10;2.22;;;15.70;99.90;;;;;;5073034;28;20043;-90
2023/08/02 02:10:21;;;;;;;5.57;1.88;;;15.70;99.90;;;;;;5083144;27;20038;-90
2023/08/02 02:12:47;;;;;;;4.65;2.10;;;15.60;99.90;;;;;;5121674;27;20038;-90
2023/08/02 02:15:13;;;;;;;4.57;1.85;;;15.50;99.90;;;;;;5081673;27;20037;-91
2023/08/02 02:17:39;;;;;;;5.03;1.70;;;15.40;99.90;;;;;;5092476;27;20053;-90
2023/08/02 02:20:06;;;;;;;3.47;1.67;;;15.60;99.90;;;;;;5111139;27;20540;-90
2023/08/02 02:22:32;;;;;;;6.43;2.00;;;15.60;99.90;;;;;;5100973;27;20485;-90
2023/08/02 02:24:57;;;;;;;3.33;2.08;;;15.60;99.90;;;;;;5112159;28;20039;-90
2023/08/02 02:27:23;;;;;;;6.78;1.95;;;15.50;99.90;;;;;;5073614;28;20039;-90
2023/08/02 02:29:49;;;;;;;5.03;2.13;;;15.40;99.90;;;;;;5092560;27;20071;-90
2023/08/02 02:32:14;;;;;;;4.93;2.00;;;15.60;99.90;;;;;;5077918;28;20272;-90
2023/08/02 02:34:40;;;;;;;4.85;2.25;;;15.40;99.90;;;;;;5083018;27;20080;-90
2023/08/02 02:37:06;;;;;;;3.72;1.98;;;15.50;99.90;;;;;;5075783;27;20035;-91
2023/08/02 02:39:32;;;;;;;4.53;2.20;;;15.40;99.90;;;;;;5089072;27;20623;-90
2023/08/02 02:41:58;;;;;;;3.92;1.70;;;15.60;99.90;;;;;;5078228;27;20041;-90
2023/08/02 02:44:40;;;;;;;9.65;2.55;;;15.40;99.90;;;;;;5080158;28;20071;-90
2023/08/02 02:47:05;;;;;;;5.72;1.92;;;15.40;99.90;;;;;;5102966;27;20043;-90
2023/08/02 02:49:31;;;;;;;3.35;2.25;;;15.50;99.90;;;;;;5081673;28;20043;-90
2023/08/02 02:51:57;;;;;;;3.53;1.95;;;15.60;99.90;;;;;;5095273;27;20099;-90
2023/08/02 02:54:22;;;;;;;4.18;2.05;;;15.40;99.90;;;;;;5079502;28;20035;-89
2023/08/02 02:56:48;;;;;;;4.32;1.73;;;15.50;99.90;;;;;;5083256;27;20034;-90
2023/08/02 02:59:14;;;;;;;5.65;1.98;;;15.50;99.90;;;;;;5070339;28;20123;-90
2023/08/02 03:01:40;;;;;;;4.13;2.00;;;15.50;99.90;;;;;;5097434;27;20089;-89
2023/08/02 03:04:06;;;;;;;5.53;1.92;;;15.60;99.90;;;;;;5091963;27;20158;-90
2023/08/02 03:06:31;;;;;;;6.50;2.25;;;15.50;99.90;;;;;;5084291;27;20464;-91
2023/08/02 03:08:57;;;;;;;3.55;2.00;;;15.60;99.90;;;;;;5076411;27;20053;-90
2023/08/02 03:11:23;;;;;;;6.25;2.22;;;15.60;99.90;;;;;;5120212;27;20099;-90
2023/08/02 03:13:49;;;;;;;3.40;1.90;;;15.50;99.90;;;;;;5087196;27;20046;-90
2023/08/02 03:16:14;;;;;;;4.18;2.00;;;15.50;99.90;;;;;;5087283;27;20039;-90
2023/08/02 03:18:40;;;;;;;3.33;1.95;;;15.40;99.90;;;;;;5100497;27;20093;-90
2023/08/02 03:21:06;;;;;;;5.00;2.10;;;15.60;99.90;;;;;;5101562;27;20461;-90
2023/08/02 03:23:34;;;;;;;6.85;2.20;;;15.60;99.90;;;;;;5095850;27;20039;-90
2023/08/02 03:26:00;;;;;;;3.38;1.67;;;15.40;99.90;;;;;;5114772;27;20444;-89
2023/08/02 03:28:26;;;;;;;5.53;2.30;;;15.60;99.90;;;;;;5072418;27;20074;-90
2023/08/02 03:30:54;;;;;;;5.93;1.90;;;15.40;99.90;;;;;;5097538;27;20118;-90
2023/08/02 03:33:20;;;;;;;3.50;2.03;;;15.50;99.90;;;;;;5120408;27;20102;-90
2023/08/02 03:35:46;;;;;;;5.15;2.17;;;15.40;99.90;;;;;;5137535;27;20215;-90
2023/08/02 03:38:11;;;;;;;6.25;1.88;;;15.50;99.90;;;;;;5096604;27;20031;-90
2023/08/02 03:40:38;;;;;;;8.40;2.20;;;15.40;99.90;;;;;;5118249;27;20043;-90
2023/08/02 03:43:04;;;;;;;7.38;2.10;;;15.60;99.90;;;;;;5095853;27;20070;-89
2023/08/02 03:45:29;;;;;;;5.28;2.17;;;15.50;99.90;;;;;;5073772;27;20070;-90
2023/08/02 03:47:55;;;;;;;6.32;1.92;;;15.60;99.90;;;;;;5085906;27;20380;-89
2023/08/02 03:50:21;;;;;;;4.28;1.95;;;15.50;99.90;;;;;;5091112;27;20035;-88
2023/08/02 03:52:46;;;;;;;4.28;2.33;;;15.50;99.90;;;;;;5099667;27;20039;-90
2023/08/02 03:55:12;;;;;;;4.78;2.20;;;15.50;99.90;;;;;;5086324;27;20035;-90
2023/08/02 03:57:38;;;;;;;7.18;2.47;;;15.30;99.90;;;;;;5101066;27;20479;-90
2023/08/02 04:00:05;;;;;;;6.50;2.38;;;15.30;99.90;;;;;;5084523;27;20049;-89
2023/08/02 04:02:32;;;;;;;5.70;2.50;;;15.50;99.90;;;;;;5099091;27;20078;-88
2023/08/02 04:04:58;;;;;;;6.00;2.17;;;15.50;99.90;;;;;;5120065;27;20482;-89
2023/08/02 04:07:23;;;;;;;5.13;2.28;;;15.30;99.90;;;;;;5086050;27;20653;-89
2023/08/02 04:09:49;;;;;;;10.25;2.70;;;15.30;99.90;;;;;;5082940;27;20036;-91
2023/08/02 04:12:17;;;;;;;8.55;2.72;;;15.40;99.90;;;;;;5083990;27;20043;-89
2023/08/02 04:14:43;;;;;;;10.13;3.33;;;15.40;99.90;;;;;;5096099;27;20039;-89
2023/08/02 04:17:09;;;;;;;7.10;2.58;;;15.50;99.90;;;;;;5096619;27;20066;-89
2023/08/02 04:19:35;;;;;;;6.68;2.63;;;15.40;99.90;;;;;;5079262;27;20066;-89
2023/08/02 04:22:00;;;;;;;4.82;2.45;;;15.40;99.90;;;;;;5073701;27;20163;-89
2023/08/02 04:24:26;;;;;;;7.68;2.50;;;15.30;99.90;;;;;;5085068;27;20035;-89
2023/08/02 04:26:52;;;;;;;9.45;2.65;;;15.50;99.90;;;;;;5082388;27;20058;-88
2023/08/02 04:29:18;;;;;;;5.07;2.55;;;15.50;99.90;;;;;;5080501;27;20365;-89
2023/08/02 04:31:44;;;;;;;8.63;3.00;;;15.40;99.90;;;;;;5082697;27;20049;-88
2023/08/02 04:34:09;;;;;;;6.72;2.65;;;15.50;99.90;;;;;;5069480;27;20674;-90
2023/08/02 04:36:35;;;;;;;9.60;3.38;;;15.40;99.90;;;;;;5119367;27;20402;-90
2023/08/02 04:39:03;;;;;;;10.30;3.08;;;15.50;99.90;;;;;;5099713;27;20117;-90
2023/08/02 04:41:29;;;;;;;8.05;2.85;;;15.40;99.90;;;;;;5102585;27;20066;-90
2023/08/02 04:43:55;;;;;;;8.13;3.33;;;15.50;99.90;;;;;;5098201;27;20034;-91
2023/08/02 04:46:22;;;;;;;10.80;3.13;;;15.30;99.90;;;;;;5082160;27;20039;-91
2023/08/02 04:48:47;;;;;;;9.93;4.30;;;15.50;99.90;;;;;;5114365;27;20047;-91
2023/08/02 04:51:13;;;;;;;8.95;3.70;;;15.50;99.90;;;;;;5085736;27;20042;-91
2023/08/02 04:53:40;;;;;;;7.25;2.80;;;15.50;99.90;;;;;;5084363;27;20045;-90
2023/08/02 04:56:09;;;;;;;10.80;3.50;;;15.40;99.90;;;;;;5118240;27;20058;-91
2023/08/02 04:58:35;;;;;;;6.53;3.40;;;15.50;99.90;;;;;;5101211;27;20087;-92
2023/08/02 05:01:02;;;;;;;10.55;3.53;;;15.40;99.90;;;;;;5085259;27;20569;-92
2023/08/02 05:03:28;;;;;;;;;;;15.40;99.90;;;;;;5137157;27;20046;-90
2023/08/02 05:06:02;;;;;;;7.97;3.30;;;15.30;99.90;;;;;;5136369;27;19922;-92
2023/08/02 05:08:31;;;;;;;7.25;3.25;;;15.40;99.90;;;;;;5112107;27;20724;-91
2023/08/02 05:10:57;;;;;;;8.73;3.80;;;15.30;99.90;;;;;;5119533;27;20069;-90
2023/08/02 05:13:24;;;;;;;8.18;3.35;;;15.40;99.90;;;;;;5119169;27;20123;-90
2023/08/02 05:15:50;;;;;;;10.70;3.25;;;15.40;99.90;;;;;;5098423;27;20045;-91
2023/08/02 05:18:16;;;;;;;9.55;3.50;;;15.50;99.90;;;;;;5107184;27;20035;-90
2023/08/02 05:20:42;;;;;;;8.18;3.45;;;15.40;99.90;;;;;;5096933;27;20043;-90
2023/08/02 05:23:07;;;;;;;7.05;4.05;;;15.50;99.90;;;;;;5094748;27;20084;-90
2023/08/02 05:25:34;;;;;;;8.38;3.45;;;15.50;99.90;;;;;;5083359;27;20103;-90
2023/08/02 05:28:01;;;;;;;6.47;3.33;;;15.40;99.90;;;;;;5115406;27;20087;-90
2023/08/02 05:30:31;;;;;;;9.00;3.77;;;15.50;99.90;;;;;;5101361;27;20047;-90
2023/08/02 05:32:57;;;;;;;6.80;3.83;;;15.50;99.90;;;;;;5112043;27;20900;-91
2023/08/02 05:35:25;;;;;;;6.37;4.40;;;15.40;99.90;;;;;;5089719;27;20050;-91
2023/08/02 05:37:54;;;;;;;7.32;3.70;;;15.50;99.90;;;;;;5098353;27;20464;-90
2023/08/02 05:40:20;;;;;;;8.50;3.53;;;15.50;99.90;;;;;;5116772;27;20039;-90
2023/08/02 05:42:46;;;;;;;5.82;3.30;;;15.50;99.90;;;;;;5096155;27;20494;-90
2023/08/02 05:45:11;;;;;;;8.48;3.45;;;15.60;99.90;;;;;;5110276;27;20034;-92
2023/08/02 05:47:37;;;;;;;8.02;3.63;;;15.70;99.90;;;;;;5094533;27;20062;-90
2023/08/02 05:50:03;;;;;;;9.15;3.50;;;15.70;99.90;;;;;;5110544;27;20039;-90
2023/08/02 05:52:29;;;;;;;7.45;3.15;;;15.80;99.90;;;;;;5094336;27;20126;-91
2023/08/02 05:54:55;;;;;;;8.85;3.78;;;15.80;99.90;;;;;;5125753;27;20042;-90
2023/08/02 05:57:21;;;;;;;7.43;3.30;;;15.90;99.90;;;;;;5100562;27;20039;-90
2023/08/02 05:59:50;;;;;;;6.53;3.20;;;15.80;99.90;;;;;;5099465;27;20065;-90
2023/08/02 06:02:23;;;;;;;6.82;3.50;;;16.50;99.90;;;;;;5099910;27;20043;-93
2023/08/02 06:04:49;;;;;;;5.82;3.53;;;16.50;99.90;;;;;;5097486;27;20041;-90
2023/08/02 06:11:01;;;;;;;8.93;3.55;;;16.50;99.90;;;;;;5148163;27;20090;-92
2023/08/02 06:13:28;;;;;;;7.22;3.50;;;16.50;99.90;;;;;;5131023;27;20492;-91
2023/08/02 06:15:54;;;;;;;5.32;3.35;;;16.30;99.90;;;;;;5118885;27;20046;-91
2023/08/02 06:18:20;;;;;;;7.47;3.28;;;16.30;99.90;;;;;;5118213;27;20039;-90
2023/08/02 06:20:45;;;;;;;9.30;3.78;;;16.30;99.90;;;;;;5096433;27;20049;-91
2023/08/02 06:23:11;;;;;;;5.88;3.53;;;16.20;99.90;;;;;;5098474;28;20084;-90
2023/08/02 06:25:46;;;;;;;7.07;3.70;;;16.30;99.90;;;;;;5107228;27;20041;-92
2023/08/02 06:29:11;;;;;;;6.80;3.70;;;16.30;99.90;;;;;;5095013;28;20049;-92
2023/08/02 06:35:40;;;;;;;5.03;3.47;;;16.40;99.90;;;;;;5083992;28;20109;-92
2023/08/02 06:38:49;;;;;;;8.55;3.50;;;16.60;99.90;;;;;;5053328;28;20127;-91
2023/08/02 06:41:17;;;;;;;6.65;3.22;;;16.60;99.90;;;;;;5048899;28;20064;-91
2023/08/02 06:43:47;;;;;;;7.32;4.10;;;16.60;99.90;;;;;;5071388;28;20417;-85
2023/08/02 06:46:13;;;;;;;8.13;4.07;;;16.60;99.90;;;;;;5122574;27;20123;-89
2023/08/02 06:48:38;;;;;;;7.15;4.00;;;16.60;99.90;;;;;;5096291;27;20148;-88
2023/08/02 06:51:04;;;;;;;7.43;3.78;;;16.70;99.90;;;;;;5097679;27;20046;-89
2023/08/02 06:53:30;;;;;;;6.25;4.22;;;16.90;99.90;;;;;;5114084;27;20039;-89
2023/08/02 06:56:08;;;;;;;6.38;3.85;;;17.10;99.90;;;;;;5116439;27;20046;-88
2023/08/02 06:58:34;;;;;;;4.88;3.63;;;17.20;99.90;;;;;;5091764;27;20040;-89
2023/08/02 07:01:12;;;;;;;7.28;3.95;;;16.80;99.90;;;;;;5096659;27;20050;-88
2023/08/02 07:03:44;;;;;;;5.78;3.70;;;17.30;99.90;;;;;;5114595;27;20043;-89
2023/08/02 07:06:18;;;;;;;6.57;4.40;;;17.10;99.90;;;;;;5113998;27;20206;-88
2023/08/02 07:08:44;;;;;;;6.55;3.80;;;17.10;99.90;;;;;;5089638;27;20039;-89
2023/08/02 07:11:11;;;;;;;6.28;4.55;;;16.90;99.90;;;;;;5096717;27;20035;-88
2023/08/02 07:13:37;;;;;;;5.65;4.50;;;16.90;99.90;;;;;;5107571;27;20043;-86
2023/08/02 07:16:04;;;;;;;8.03;4.73;;;16.80;99.90;;;;;;5107245;27;20035;-90
2023/08/02 07:18:30;;;;;;;;;;;16.70;99.90;;;;;;5119906;27;20101;-89
2023/08/02 07:20:56;;;;;;;7.18;4.40;;;16.70;99.90;;;;;;5119251;27;19934;-88
2023/08/02 07:23:22;;;;;;;7.15;5.03;;;16.70;99.90;;;;;;5102345;27;20419;-87
2023/08/02 07:25:48;;;;;;;6.13;4.90;;;16.70;99.90;;;;;;5106013;27;20039;-88
2023/08/02 07:28:14;;;;;;;6.35;4.40;;;16.60;99.90;;;;;;5100462;27;20034;-89
2023/08/02 07:30:40;;;;;;;7.35;4.03;;;16.60;99.90;;;;;;5116515;27;20050;-88
2023/08/02 07:33:06;;;;;;;8.65;4.18;;;16.60;99.90;;;;;;5119738;27;20051;-87
2023/08/02 07:35:37;;;;;;;6.43;3.92;;;16.60;99.90;;;;;;5092595;27;20047;-87
2023/08/02 07:38:03;;;;;;;6.82;3.97;;;16.60;99.90;;;;;;5118366;27;20057;-88
2023/08/02 07:40:29;;;;;;;7.88;3.83;;;16.50;99.90;;;;;;5097240;27;20039;-87
2023/08/02 07:42:59;;;;;;;6.00;3.13;;;16.50;99.90;;;;;;5119214;27;20489;-90
2023/08/02 07:45:25;;;;;;;7.53;3.05;;;16.50;99.90;;;;;;5093534;27;20042;-87
2023/08/02 07:47:51;;;;;;;5.43;3.33;;;16.50;99.90;;;;;;5092112;27;20374;-87
2023/08/02 07:50:20;;;;;;;4.82;2.90;;;16.50;99.90;;;;;;5106943;27;20120;-87
2023/08/02 07:52:45;;;;;;;7.55;3.50;;;16.50;99.90;;;;;;5116148;27;20054;-86
2023/08/02 07:55:14;;;;;;;5.95;2.60;;;16.50;99.90;;;;;;5116370;27;20183;-89
2023/08/02 07:57:40;;;;;;;8.32;2.90;;;16.40;99.90;;;;;;5116378;27;20110;-89
2023/08/02 08:00:07;;;;;;;5.18;2.72;;;16.40;99.90;;;;;;5083671;27;20050;-89
2023/08/02 08:02:32;;;;;;;4.25;2.53;;;16.40;99.90;;;;;;5080731;27;20043;-88
2023/08/02 08:04:58;;;;;;;6.57;2.78;;;16.40;99.90;;;;;;5080678;27;20022;-87
2023/08/02 08:07:24;;;;;;;6.30;2.80;;;16.30;99.90;;;;;;5081416;27;20040;-86
2023/08/02 08:09:53;;;;;;;5.88;2.42;;;16.40;99.90;;;;;;5097113;27;20030;-86
2023/08/02 08:12:18;;;;;;;5.68;2.60;;;16.40;99.90;;;;;;5098862;27;20034;-85
2023/08/02 08:14:44;;;;;;;6.88;2.67;;;16.40;99.90;;;;;;5102120;27;20099;-87
2023/08/02 08:17:13;;;;;;;6.15;2.95;;;16.40;99.90;;;;;;5098743;27;20031;-86
2023/08/02 08:19:39;;;;;;;4.43;2.47;;;16.40;99.90;;;;;;5101551;27;20039;-91
2023/08/02 08:22:05;;;;;;;4.88;2.40;;;16.30;99.90;;;;;;5100258;27;20035;-91
2023/08/02 08:24:30;;;;;;;8.32;2.80;;;16.40;99.90;;;;;;5083042;27;20099;-91
2023/08/02 08:26:56;;;;;;;5.07;2.40;;;16.30;99.90;;;;;;5106196;27;20042;-90
2023/08/02 08:29:27;;;;;;;6.35;2.50;;;16.30;99.90;;;;;;5097727;27;20059;-91
2023/08/02 08:31:53;;;;;;;6.90;2.13;;;16.20;99.90;;;;;;5120021;27;20138;-91
2023/08/02 08:34:19;;;;;;;3.65;1.88;;;16.10;99.90;;;;;;5102883;27;20562;-90
2023/08/02 08:36:45;;;;;;;4.25;2.03;;;16.10;99.90;;;;;;5104868;27;20043;-91
2023/08/02 08:39:12;;;;;;;4.90;2.22;;;16.10;99.90;;;;;;5116268;27;20481;-92
2023/08/02 08:41:37;;;;;;;4.60;2.35;;;16.10;99.90;;;;;;5119236;27;20079;-92
2023/08/02 08:44:03;;;;;;;8.50;2.35;;;16.00;99.90;;;;;;5099615;27;20031;-93
2023/08/02 08:46:34;;;;;;;5.15;2.60;;;16.00;99.90;;;;;;5102237;27;20053;-91
2023/08/02 08:49:01;;;;;;;8.07;2.63;;;15.80;99.90;;;;;;5116750;27;20042;-92
2023/08/02 08:51:29;;;;;;;11.77;2.90;;;15.40;99.90;;;;;;5101003;27;20058;-92
2023/08/02 08:53:56;;;;;;;7.05;2.42;;;15.70;99.90;;;;;;5118085;27;20064;-90
2023/08/02 08:56:26;;;;;;;4.63;2.17;;;15.70;99.90;;;;;;5117335;27;20603;-91
2023/08/02 08:58:53;;;;;;;6.22;2.70;;;15.70;99.90;;;;;;5118930;27;20045;-91
2023/08/02 09:01:19;;;;;;;5.90;2.42;;;15.50;99.90;;;;;;5118458;27;20043;-91
2023/08/02 09:03:45;;;;;;;5.93;2.45;;;15.50;99.90;;;;;;5099347;27;20082;-91
2023/08/02 09:06:13;;;;;;;8.05;2.55;;;15.50;99.90;;;;;;5085318;27;20119;-91
2023/08/02 09:08:47;;;;;;;7.18;2.75;;;15.40;99.90;;;;;;5115866;27;20761;-90
2023/08/02 09:11:15;;;;;;;3.95;2.17;;;15.30;99.90;;;;;;5116776;27;20034;-92
2023/08/02 09:13:41;;;;;;;9.13;2.60;;;15.20;99.90;;;;;;5084298;27;20035;-93
2023/08/02 09:16:12;;;;;;;8.88;2.47;;;15.30;99.90;;;;;;5098114;27;20042;-94
2023/08/02 09:18:40;;;;;;;4.47;2.20;;;15.20;99.90;;;;;;5116476;27;20129;-93
2023/08/02 09:21:08;;;;;;;6.70;2.80;;;15.30;99.90;;;;;;5116620;27;20037;-94
2023/08/02 09:23:33;;;;;;;;;;;15.20;99.90;;;;;;5117955;27;20038;-91
2023/08/02 09:26:16;;;;;;;5.35;2.65;;;15.20;99.90;;;;;;5133985;27;19915;-93
2023/08/02 09:28:59;;;;;;;5.28;2.80;;;15.30;99.90;;;;;;5117749;27;20045;-94
2023/08/02 09:31:26;;;;;;;3.78;2.45;;;14.80;99.90;;;;;;5118338;27;20042;-94
2023/08/02 09:33:53;;;;;;;5.32;2.28;;;15.30;99.90;;;;;;5083142;27;20067;-93
2023/08/02 09:36:23;;;;;;;4.10;2.15;;;15.30;99.90;;;;;;5118052;27;20042;-94
2023/08/02 09:39:01;;;;;;;5.57;2.50;;;15.30;99.90;;;;;;5098176;27;20041;-93
2023/08/02 09:41:28;;;;;;;5.00;2.22;;;15.30;99.90;;;;;;5126972;27;20065;-93
2023/08/02 09:43:54;;;;;;;5.25;2.45;;;15.40;99.90;;;;;;5113673;27;20116;-93
2023/08/02 09:46:27;;;;;;;5.18;2.60;;;15.40;99.90;;;;;;5116831;27;20027;-94
2023/08/02 09:48:52;;;;;;;4.47;2.30;;;15.30;99.90;;;;;;5114702;27;20034;-93
2023/08/02 09:51:18;;;;;;;6.78;2.70;;;15.40;99.90;;;;;;5100600;27;20095;-94
2023/08/02 09:53:54;;;;;;;5.65;3.20;;;15.30;99.90;;;;;;5083046;27;20045;-94
2023/08/02 09:56:23;;;;;;;6.95;2.85;;;15.40;99.90;;;;;;5115248;27;20208;-94
2023/08/02 09:58:53;;;;;;;4.78;2.83;;;14.90;99.90;;;;;;5115187;27;20057;-91
2023/08/02 10:01:19;;;;;;;7.60;3.22;;;15.50;99.90;;;;;;5114516;27;20051;-93
2023/08/02 10:03:52;;;;;;;7.05;2.80;;;15.10;99.90;;;;;;5081665;27;20043;-93
2023/08/02 10:06:20;;;;;;;7.28;3.58;;;15.20;99.90;;;;;;5115510;27;20608;-93
2023/08/02 10:08:52;;;;;;;5.18;3.28;;;15.30;99.90;;;;;;5096185;28;20280;-93
2023/08/02 10:11:18;;;;;;;6.80;3.58;;;15.70;99.90;;;;;;5108999;27;20073;-93
2023/08/02 10:13:46;;;;;;;6.05;4.40;;;15.70;99.90;;;;;;5117611;27;20062;-93
2023/08/02 10:16:14;;;;;;;7.55;4.30;;;15.70;99.90;;;;;;5100941;27;20066;-93
2023/08/02 10:18:40;;;;;;;5.38;3.58;;;15.60;99.90;;;;;;5112205;27;20518;-93
2023/08/02 10:21:07;;;;;;;8.27;4.03;;;15.70;99.90;;;;;;5118895;27;20043;-94
2023/08/02 10:23:34;;;;;;;7.15;3.38;;;15.50;99.90;;;;;;5103149;27;20042;-92
2023/08/02 10:26:02;;;;;;;10.02;3.95;;;15.60;99.90;;;;;;5121194;27;20042;-92
2023/08/02 10:28:31;;;;;;;4.65;3.60;;;15.60;99.90;;;;;;5102859;27;20035;-95
2023/08/02 10:30:57;;;;;;;8.43;4.00;;;15.50;99.90;;;;;;5119633;27;20640;-93
2023/08/02 10:33:22;;;;;;;6.10;3.65;;;15.40;99.90;;;;;;5085840;27;20076;-94
2023/08/02 10:36:23;;;;;;;;;;;;;;;;;;;;;
2023/08/02 10:39:09;;;;;;;6.68;3.42;;;15.40;99.90;;;;;;5128774;27;20358;-93
2023/08/02 10:52:39;;;;;;;5.70;3.30;;;15.40;99.90;;;;;;5152206;27;20074;-93
2023/08/02 10:58:51;;;;;;;4.25;2.92;;;15.50;99.90;;;;;;5135618;27;20050;-92
2023/08/02 11:01:18;;;;;;;5.40;2.55;;;15.40;99.90;;;;;;5102140;27;20650;-93
2023/08/02 11:03:44;;;;;;;3.92;2.25;;;16.00;99.90;;;;;;5104084;27;20473;-92
2023/08/02 11:06:24;;;;;;;4.68;2.25;;;15.30;99.90;;;;;;5103852;27;20488;-92
2023/08/02 11:08:50;;;;;;;4.07;2.30;;;15.90;99.90;;;;;;5119434;27;20412;-94
2023/08/02 11:11:26;;;;;;;4.43;2.10;;;16.00;99.90;;;;;;5086607;27;20034;-91
2023/08/02 11:13:52;;;;;;;2.45;1.55;;;15.80;99.90;;;;;;5102677;27;20031;-93
2023/08/02 11:16:18;;;;;;;2.53;1.60;;;16.00;99.90;;;;;;5118270;27;20038;-92
2023/08/02 11:18:44;;;;;;;2.75;1.75;;;15.80;99.90;;;;;;5120878;27;20122;-90
2023/08/02 11:21:12;;;;;;;3.58;1.67;;;16.10;99.90;;;;;;5117978;27;20053;-91
2023/08/02 11:23:38;;;;;;;;;;;16.30;99.90;;;;;;5102244;27;20038;-94
2023/08/02 11:26:08;;;;;;;1.73;1.25;;;16.30;99.90;;;;;;5118363;27;19993;-93
2023/08/02 11:28:48;;;;;;;2.67;1.23;;;16.00;99.90;;;;;;5114728;27;20037;-94
2023/08/02 11:31:14;;;;;;;2.85;1.15;;;16.10;99.90;;;;;;5104105;27;20075;-95
2023/08/02 11:33:41;;;;;;;1.30;1.00;;;16.10;99.90;;;;;;5115843;27;20062;-94
2023/08/02 11:36:07;;;;;;;1.73;0.80;;;16.10;99.90;;;;;;5117055;27;20121;-93
2023/08/02 11:38:41;;;;;;;2.03;1.02;;;16.00;99.90;;;;;;5120081;27;20400;-93
2023/08/02 11:42:30;;;;;;;;;;;;;;;;;;;;;
2023/08/02 11:45:04;;;;;;;1.55;0.80;;;16.00;99.90;;;;;;5044232;27;20069;-93
2023/08/02 11:47:42;;;;;;;1.25;0.85;;;16.30;99.90;;;;;;5120442;27;20045;-94
2023/08/02 11:50:08;;;;;;;2.22;1.10;;;16.40;99.90;;;;;;5115461;27;20031;-94
2023/08/02 11:52:54;;;;;;;1.75;0.90;;;16.10;99.90;;;;;;5102573;27;20038;-94
2023/08/02 11:55:41;;;;;;;1.65;0.98;;;16.40;99.90;;;;;;5116016;27;20037;-94
2023/08/02 11:58:10;;;;;;;2.75;0.80;;;16.20;99.90;;;;;;5122162;27;20087;-92
2023/08/02 12:00:37;;;;;;;1.15;0.80;;;16.30;99.90;;;;;;5119027;27;20042;-93
2023/08/02 12:03:14;;;;;;;2.15;0.90;;;16.30;99.90;;;;;;5114078;27;20051;-94
2023/08/02 12:05:42;;;;;;;0.80;0.53;;;16.40;99.90;;;;;;5114997;27;20070;-93
2023/08/02 12:11:25;;;;;;;0.88;0.63;;;16.50;99.90;;;;;;5114776;27;20511;-93
2023/08/02 12:14:00;;;;;;;0.93;0.60;;;16.70;99.90;;;;;;5107137;27;20043;-93
2023/08/02 12:16:43;;;;;;;1.13;0.70;;;17.10;99.90;;;;;;5107168;27;20043;-94
2023/08/02 12:19:19;;;;;;;1.23;0.60;;;16.80;99.90;;;;;;5109399;27;20506;-93
2023/08/02 12:22:53;;;;;;;1.63;0.75;;;16.90;99.90;;;;;;5115957;27;20043;-94
2023/08/02 12:32:46;;;;;;;1.45;0.90;;;17.00;99.90;;;;;;5102963;28;20132;-95
2023/08/02 12:35:17;;;;;;;0.70;0.70;;;17.40;99.90;;;;;;5072698;28;20089;-95
2023/08/02 12:37:47;;;;;;;1.98;0.85;;;17.10;99.90;;;;;;5073747;28;20031;-92
2023/08/02 12:40:23;;;;;;;1.67;1.00;;;17.00;99.90;;;;;;5078322;27;20042;-94
2023/08/02 12:43:08;;;;;;;1.58;1.02;;;17.20;99.90;;;;;;5113216;27;20134;-95
2023/08/02 12:45:34;;;;;;;1.13;0.80;;;17.00;99.90;;;;;;5097518;27;20138;-90
2023/08/02 12:48:02;;;;;;;1.05;0.80;;;17.10;99.90;;;;;;5094994;27;20132;-93
2023/08/02 12:50:29;;;;;;;1.40;1.00;;;17.30;99.90;;;;;;5107564;27;20045;-92
2023/08/02 12:53:06;;;;;;;3.05;1.00;;;17.20;99.90;;;;;;5104522;27;20035;-93
2023/08/02 12:55:50;;;;;;;1.30;0.93;;;17.30;99.90;;;;;;5111883;27;20489;-92
2023/08/02 12:58:43;;;;;;;1.73;1.20;;;17.30;99.90;;;;;;5096278;27;20505;-93
2023/08/02 13:05:18;;;;;;;1.50;1.30;;;18.10;99.90;;;;;;5089557;27;20091;-93
2023/08/02 13:08:10;;;;;;;;;;;;;;;;;;;;;
2023/08/02 13:11:43;;;;;;;1.40;1.27;;;18.40;99.90;;;;;;5094860;28;20062;-92
2023/08/02 13:15:02;;;;;;;3.25;1.80;;;18.70;99.90;;;;;;5086599;28;20075;-91
2023/08/02 13:17:57;;;;;;;1.95;1.60;;;19.00;99.90;;;;;;5092818;28;20042;-94
2023/08/02 13:21:19;;;;;;;1.60;1.50;;;18.80;99.90;;;;;;5070779;28;20106;-93
2023/08/02 13:28:28;;;;;;;2.30;1.27;;;19.00;99.90;;;;;;4943091;28;20050;-92
2023/08/02 13:34:53;;;;;;;3.00;1.40;;;19.40;99.90;;;;;;4962151;28;20047;-91
2023/08/02 13:38:17;;;;;;;2.65;1.20;;;19.10;99.90;;;;;;4974762;28;20487;-92
2023/08/02 13:41:13;;;;;;;1.83;1.25;;;19.20;99.90;;;;;;5010411;28;20122;-90
2023/08/02 13:44:24;;;;;;;1.88;1.48;;;18.90;99.90;;;;;;5019396;28;20492;-93
2023/08/02 13:47:22;;;;;;;1.30;1.20;;;18.70;99.90;;;;;;5063323;27;20043;-92
2023/08/02 13:54:05;;;;;;;1.92;1.00;;;19.30;99.90;;;;;;5128981;27;20043;-92